Terminal Aerodrome Forecast
Issued by NWS Cleveland, OH

Home | Current Version | Previous Version | Graphics & Text | Print | Product List | Glossary On
Versions: 1 2 3 4 5 6 7 8 9 10 11 12 13 14 15 16
000
FTUS41 KCLE 191607 AAB
TAFMFD
TAF AMD
KMFD 191607Z 1916/2012 18008KT P6SM VCSH SCT015 OVC050
      TEMPO 1916/1919 3SM -TSRA BKN015CB OVC025
     FM192300 18005KT P6SM BKN070
     FM200600 VRB03KT P6SM BKN030=

USA.gov is the U.S. government's official web portal to all federal, state and local government web resources and services.